Time,TemperatureF,DewpointF,PressureIn,WindDirection,WindDirectionDegrees,WindSpeedMPH,WindSpeedGustMPH,Humidity,HourlyPrecipIn,Conditions,Clouds,dailyrainin,SoftwareType,DateUTC
2013-06-30 00:02:00,49.2,42.6,29.94,NNW,341,1.0,2.0,78,0.00,,---,0.00,VWS V14.01,2013-06-30 06:02:00,
2013-06-30 00:07:00,49.1,42.5,29.94,NNW,341,1.0,2.0,78,0.00,,---,0.00,VWS V14.01,2013-06-30 06:07:00,
2013-06-30 00:12:00,49.0,42.8,29.94,NNW,343,8.0,8.0,79,0.00,,---,0.00,VWS V14.01,2013-06-30 06:12:00,
2013-06-30 00:18:00,49.0,42.5,29.93,NNW,343,4.0,5.0,78,0.00,,---,0.00,VWS V14.01,2013-06-30 06:18:00,
2013-06-30 00:23:00,49.0,42.8,29.93,NNW,343,4.0,5.0,79,0.00,,---,0.00,VWS V14.01,2013-06-30 06:23:00,
2013-06-30 00:28:00,49.1,42.5,29.94,NNW,343,5.0,7.0,78,0.00,,---,0.00,VWS V14.01,2013-06-30 06:28:00,
2013-06-30 00:33:00,48.8,42.3,29.94,NNW,343,0.0,0.0,78,0.00,,---,0.00,VWS V14.01,2013-06-30 06:33:00,
2013-06-30 00:38:00,48.6,42.4,29.94,NNW,343,2.0,2.0,79,0.00,,---,0.00,VWS V14.01,2013-06-30 06:38:00,
2013-06-30 00:43:00,48.2,42.0,29.94,NNW,343,4.0,6.0,79,0.00,,---,0.00,VWS V14.01,2013-06-30 06:43:00,
2013-06-30 00:48:00,47.8,41.9,29.94,NNW,343,3.0,4.0,80,0.00,,---,0.00,VWS V14.01,2013-06-30 06:48:00,
2013-06-30 00:53:00,47.2,41.7,29.94,NNW,343,7.0,9.0,81,0.00,,---,0.00,VWS V14.01,2013-06-30 06:53:00,
2013-06-30 00:58:00,46.9,41.7,29.94,NNW,343,5.0,6.0,82,0.00,,---,0.00,VWS V14.01,2013-06-30 06:58:00,
2013-06-30 01:03:00,46.7,41.5,29.95,NNW,343,2.0,5.0,82,0.00,,---,0.00,VWS V14.01,2013-06-30 07:03:00,
2013-06-30 01:08:00,46.4,41.5,29.95,NNW,343,5.0,6.0,83,0.00,,---,0.00,VWS V14.01,2013-06-30 07:08:00,
2013-06-30 01:13:00,46.5,41.6,29.94,NNW,343,5.0,6.0,83,0.00,,---,0.00,VWS V14.01,2013-06-30 07:13:00,
2013-06-30 01:18:00,46.5,41.6,29.94,NNW,343,6.0,6.0,83,0.00,,---,0.00,VWS V14.01,2013-06-30 07:18:00,
2013-06-30 01:23:00,46.5,41.6,29.94,NNW,343,5.0,8.0,83,0.00,,---,0.00,VWS V14.01,2013-06-30 07:23:00,
2013-06-30 01:28:00,46.4,41.2,29.94,NNW,343,5.0,5.0,82,0.00,,---,0.00,VWS V14.01,2013-06-30 07:28:00,
2013-06-30 01:33:00,47.0,42.1,29.94,NNW,343,4.0,4.0,83,0.00,,---,0.00,VWS V14.01,2013-06-30 07:33:00,
2013-06-30 01:38:00,47.3,41.8,29.94,NNW,343,8.0,8.0,81,0.00,,---,0.00,VWS V14.01,2013-06-30 07:38:00,
2013-06-30 01:43:00,46.8,41.6,29.94,NNW,343,10.0,10.0,82,0.00,,---,0.00,VWS V14.01,2013-06-30 07:43:00,
2013-06-30 01:48:00,46.4,41.5,29.94,NNW,342,6.0,8.0,83,0.00,,---,0.00,VWS V14.01,2013-06-30 07:48:00,
2013-06-30 01:53:00,46.4,41.5,29.93,NNW,342,0.0,0.0,83,0.00,,---,0.00,VWS V14.01,2013-06-30 07:53:00,
2013-06-30 01:58:00,46.2,41.6,29.93,NNW,342,3.0,3.0,84,0.00,,---,0.00,VWS V14.01,2013-06-30 07:58:00,
2013-06-30 02:03:00,45.7,41.2,29.94,NNW,343,5.0,5.0,84,0.00,,---,0.00,VWS V14.01,2013-06-30 08:03:00,
2013-06-30 02:08:00,45.3,41.1,29.94,NNW,343,7.0,9.0,85,0.00,,---,0.00,VWS V14.01,2013-06-30 08:08:00,
2013-06-30 02:13:00,45.2,40.7,29.94,NNW,343,2.0,3.0,84,0.00,,---,0.00,VWS V14.01,2013-06-30 08:13:00,
2013-06-30 02:18:00,45.0,40.8,29.94,NNW,343,0.0,0.0,85,0.00,,---,0.00,VWS V14.01,2013-06-30 08:18:00,
2013-06-30 02:23:00,44.9,41.0,29.93,NNW,343,0.0,0.0,86,0.00,,---,0.00,VWS V14.01,2013-06-30 08:23:00,
2013-06-30 02:28:00,44.9,41.0,29.94,NNW,343,0.0,0.0,86,0.00,,---,0.00,VWS V14.01,2013-06-30 08:28:00,
2013-06-30 02:33:00,45.0,41.1,29.93,NNW,343,7.0,7.0,86,0.00,,---,0.00,VWS V14.01,2013-06-30 08:33:00,
2013-06-30 02:38:00,44.9,40.7,29.93,NNW,343,7.0,7.0,85,0.00,,---,0.00,VWS V14.01,2013-06-30 08:38:00,
2013-06-30 02:43:00,44.7,40.8,29.93,NNW,343,6.0,7.0,86,0.00,,---,0.00,VWS V14.01,2013-06-30 08:43:00,
2013-06-30 02:48:00,44.7,40.8,29.93,NNW,343,5.0,6.0,86,0.00,,---,0.00,VWS V14.01,2013-06-30 08:48:00,
2013-06-30 02:53:00,44.8,40.9,29.93,NNW,343,0.0,0.0,86,0.00,,---,0.00,VWS V14.01,2013-06-30 08:53:00,
2013-06-30 02:58:00,44.7,40.5,29.93,NNW,343,0.0,0.0,85,0.00,,---,0.00,VWS V14.01,2013-06-30 08:58:00,
2013-06-30 03:03:00,44.6,40.7,29.93,NNW,343,0.0,0.0,86,0.00,,---,0.00,VWS V14.01,2013-06-30 09:03:00,
2013-06-30 03:08:00,44.5,40.6,29.93,NNW,343,0.0,0.0,86,0.00,,---,0.00,VWS V14.01,2013-06-30 09:08:00,
2013-06-30 03:13:00,44.2,40.6,29.93,NNW,343,5.0,6.0,87,0.00,,---,0.00,VWS V14.01,2013-06-30 09:13:00,
2013-06-30 03:18:00,43.9,40.3,29.93,NNW,343,6.0,7.0,87,0.00,,---,0.00,VWS V14.01,2013-06-30 09:18:00,
2013-06-30 03:23:00,43.6,40.0,29.93,NNW,343,1.0,2.0,87,0.00,,---,0.00,VWS V14.01,2013-06-30 09:23:00,
2013-06-30 03:28:00,43.8,40.8,29.93,NNW,343,0.0,0.0,89,0.00,,---,0.00,VWS V14.01,2013-06-30 09:28:00,
2013-06-30 03:33:00,43.8,40.8,29.93,NNW,343,3.0,3.0,89,0.00,,---,0.00,VWS V14.01,2013-06-30 09:33:00,
2013-06-30 03:38:00,43.6,40.0,29.93,NNW,343,5.0,5.0,87,0.00,,---,0.00,VWS V14.01,2013-06-30 09:38:00,
2013-06-30 03:43:00,43.3,39.7,29.93,NNW,343,3.0,5.0,87,0.00,,---,0.00,VWS V14.01,2013-06-30 09:43:00,
2013-06-30 03:48:00,43.4,40.1,29.93,NNW,343,4.0,4.0,88,0.00,,---,0.00,VWS V14.01,2013-06-30 09:48:00,
2013-06-30 03:53:00,43.5,40.5,29.93,NNW,343,0.0,0.0,89,0.00,,---,0.00,VWS V14.01,2013-06-30 09:53:00,
2013-06-30 03:59:00,43.4,40.1,29.93,NNW,343,4.0,4.0,88,0.00,,---,0.00,VWS V14.01,2013-06-30 09:59:00,
2013-06-30 04:03:00,43.4,40.1,29.92,NNW,343,3.0,4.0,88,0.00,,---,0.00,VWS V14.01,2013-06-30 10:03:00,
2013-06-30 04:09:00,43.5,40.5,29.92,NNW,343,2.0,3.0,89,0.00,,---,0.00,VWS V14.01,2013-06-30 10:09:00,
2013-06-30 04:14:00,43.7,40.4,29.92,NNW,343,0.0,0.0,88,0.00,,---,0.00,VWS V14.01,2013-06-30 10:14:00,
2013-06-30 04:19:00,43.7,40.4,29.92,NNW,343,0.0,0.0,88,0.00,,---,0.00,VWS V14.01,2013-06-30 10:19:00,
2013-06-30 04:24:00,43.6,40.0,29.92,NNW,343,0.0,0.0,87,0.00,,---,0.00,VWS V14.01,2013-06-30 10:24:00,
2013-06-30 04:29:00,43.4,40.1,29.93,NNW,343,0.0,3.0,88,0.00,,---,0.00,VWS V14.01,2013-06-30 10:29:00,
2013-06-30 04:34:00,43.2,39.9,29.93,NNW,343,3.0,4.0,88,0.00,,---,0.00,VWS V14.01,2013-06-30 10:34:00,
2013-06-30 04:39:00,43.2,40.2,29.92,NNW,343,2.0,2.0,89,0.00,,---,0.00,VWS V14.01,2013-06-30 10:39:00,
2013-06-30 04:44:00,43.2,39.9,29.93,NNW,343,0.0,0.0,88,0.00,,---,0.00,VWS V14.01,2013-06-30 10:44:00,
2013-06-30 04:49:00,43.1,39.8,29.93,NNW,343,0.0,0.0,88,0.00,,---,0.00,VWS V14.01,2013-06-30 10:49:00,
2013-06-30 04:54:00,42.6,39.0,29.93,NNW,343,2.0,4.0,87,0.00,,---,0.00,VWS V14.01,2013-06-30 10:54:00,
2013-06-30 04:59:00,42.2,38.6,29.93,NNW,343,0.0,0.0,87,0.00,,---,0.00,VWS V14.01,2013-06-30 10:59:00,
2013-06-30 05:04:00,41.9,38.6,29.93,NNW,343,0.0,0.0,88,0.00,,---,0.00,VWS V14.01,2013-06-30 11:04:00,
2013-06-30 05:09:00,41.5,38.5,29.94,NNW,343,0.0,0.0,89,0.00,,---,0.00,VWS V14.01,2013-06-30 11:09:00,
2013-06-30 05:15:00,41.4,38.7,29.94,NNW,343,0.0,0.0,90,0.00,,---,0.00,VWS V14.01,2013-06-30 11:15:00,
2013-06-30 05:20:00,41.6,39.2,29.94,NNW,343,0.0,0.0,91,0.00,,---,0.00,VWS V14.01,2013-06-30 11:20:00,
2013-06-30 05:25:00,41.6,39.2,29.94,NNW,343,0.0,0.0,91,0.00,,---,0.00,VWS V14.01,2013-06-30 11:25:00,
2013-06-30 05:30:00,41.6,39.5,29.94,NNW,343,0.0,0.0,92,0.00,,---,0.00,VWS V14.01,2013-06-30 11:30:00,
2013-06-30 05:35:00,41.5,39.1,29.94,NNW,343,0.0,0.0,91,0.00,,---,0.00,VWS V14.01,2013-06-30 11:35:00,
2013-06-30 05:40:00,41.4,39.0,29.94,NNW,343,0.0,0.0,91,0.00,,---,0.00,VWS V14.01,2013-06-30 11:40:00,
2013-06-30 05:45:00,41.1,38.7,29.94,NNW,343,4.0,4.0,91,0.00,,---,0.00,VWS V14.01,2013-06-30 11:45:00,
2013-06-30 05:50:00,41.1,38.7,29.94,NNW,343,3.0,4.0,91,0.00,,---,0.00,VWS V14.01,2013-06-30 11:50:00,
2013-06-30 05:55:00,40.9,38.5,29.94,NNW,343,4.0,4.0,91,0.00,,---,0.00,VWS V14.01,2013-06-30 11:55:00,
2013-06-30 06:00:00,40.6,37.9,29.94,NNW,343,2.0,2.0,90,0.00,,---,0.00,VWS V14.01,2013-06-30 12:00:00,
2013-06-30 06:05:00,40.3,37.9,29.95,NNW,343,0.0,0.0,91,0.00,,---,0.00,VWS V14.01,2013-06-30 12:05:00,
2013-06-30 06:10:00,40.4,38.0,29.95,NNW,343,0.0,0.0,91,0.00,,---,0.00,VWS V14.01,2013-06-30 12:10:00,
2013-06-30 06:15:00,40.5,38.4,29.95,NNW,343,0.0,0.0,92,0.00,,---,0.00,VWS V14.01,2013-06-30 12:15:00,
2013-06-30 06:20:00,40.4,38.3,29.96,NNW,343,0.0,0.0,92,0.00,,---,0.00,VWS V14.01,2013-06-30 12:20:00,
2013-06-30 06:25:00,40.4,38.3,29.95,NNW,343,0.0,0.0,92,0.00,,---,0.00,VWS V14.01,2013-06-30 12:25:00,
2013-06-30 06:30:00,40.5,38.6,29.96,NNW,343,0.0,0.0,93,0.00,,---,0.00,VWS V14.01,2013-06-30 12:30:00,
2013-06-30 06:35:00,40.5,38.6,29.96,NNW,343,2.0,2.0,93,0.00,,---,0.00,VWS V14.01,2013-06-30 12:35:00,
2013-06-30 06:40:00,40.6,38.7,29.96,NNW,343,4.0,5.0,93,0.00,,---,0.00,VWS V14.01,2013-06-30 12:40:00,
2013-06-30 06:45:00,40.8,38.9,29.96,NNW,343,0.0,0.0,93,0.00,,---,0.00,VWS V14.01,2013-06-30 12:45:00,
2013-06-30 06:50:00,40.8,38.9,29.96,NNW,343,0.0,0.0,93,0.00,,---,0.00,VWS V14.01,2013-06-30 12:50:00,
2013-06-30 06:55:00,40.6,38.5,29.96,NNW,343,0.0,0.0,92,0.00,,---,0.00,VWS V14.01,2013-06-30 12:55:00,
2013-06-30 07:00:00,40.6,38.5,29.96,NNW,343,0.0,0.0,92,0.00,,---,0.00,VWS V14.01,2013-06-30 13:00:00,
2013-06-30 07:05:00,40.5,38.4,29.96,NNW,343,0.0,0.0,92,0.00,,---,0.00,VWS V14.01,2013-06-30 13:05:00,
2013-06-30 07:10:00,40.6,38.7,29.96,NNW,343,0.0,0.0,93,0.00,,---,0.00,VWS V14.01,2013-06-30 13:10:00,
2013-06-30 07:15:00,40.6,38.7,29.97,NNW,343,0.0,0.0,93,0.00,,---,0.00,VWS V14.01,2013-06-30 13:15:00,
2013-06-30 07:20:00,40.7,38.8,29.97,NNW,343,0.0,0.0,93,0.00,,---,0.00,VWS V14.01,2013-06-30 13:20:00,
2013-06-30 07:25:00,40.8,38.9,29.96,NNW,343,0.0,0.0,93,0.00,,---,0.00,VWS V14.01,2013-06-30 13:25:00,
2013-06-30 07:30:00,40.8,38.9,29.97,NNW,343,0.0,0.0,93,0.00,,---,0.00,VWS V14.01,2013-06-30 13:30:00,
2013-06-30 07:35:00,41.0,39.4,29.97,NNW,343,0.0,0.0,94,0.00,,---,0.00,VWS V14.01,2013-06-30 13:35:00,
2013-06-30 07:40:00,41.4,39.8,29.96,NNW,343,0.0,0.0,94,0.00,,---,0.00,VWS V14.01,2013-06-30 13:40:00,
2013-06-30 07:45:00,42.0,40.7,29.96,NNW,343,0.0,0.0,95,0.00,,---,0.00,VWS V14.01,2013-06-30 13:45:00,
2013-06-30 07:50:00,42.9,41.6,29.96,NNW,343,0.0,0.0,95,0.00,,---,0.00,VWS V14.01,2013-06-30 13:50:00,
2013-06-30 07:55:00,43.9,42.6,29.96,NNW,343,0.0,0.0,95,0.00,,---,0.00,VWS V14.01,2013-06-30 13:55:00,
2013-06-30 08:00:00,44.7,43.4,29.96,NNW,343,0.0,0.0,95,0.00,,---,0.00,VWS V14.01,2013-06-30 14:00:00,
2013-06-30 08:05:00,46.0,44.7,29.96,NNW,343,0.0,0.0,95,0.00,,---,0.00,VWS V14.01,2013-06-30 14:05:00,
2013-06-30 08:10:00,48.2,45.1,29.96,NNW,343,0.0,0.0,89,0.00,,---,0.00,VWS V14.01,2013-06-30 14:10:00,
2013-06-30 08:15:00,49.8,45.5,29.96,NNW,343,0.0,0.0,85,0.00,,---,0.00,VWS V14.01,2013-06-30 14:15:00,
2013-06-30 08:20:00,51.0,45.7,29.95,NNW,343,1.0,1.0,82,0.00,,---,0.00,VWS V14.01,2013-06-30 14:20:00,
2013-06-30 08:25:00,51.7,45.4,29.95,NNW,343,0.0,1.0,79,0.00,,---,0.00,VWS V14.01,2013-06-30 14:25:00,
2013-06-30 08:30:00,52.6,45.6,29.95,NNW,343,0.0,0.0,77,0.00,,---,0.00,VWS V14.01,2013-06-30 14:30:00,
2013-06-30 08:35:00,53.3,45.2,29.95,NNW,343,0.0,0.0,74,0.00,,---,0.00,VWS V14.01,2013-06-30 14:35:00,
2013-06-30 08:40:00,54.0,45.2,29.95,NNW,343,0.0,0.0,72,0.00,,---,0.00,VWS V14.01,2013-06-30 14:40:00,
2013-06-30 08:45:00,54.4,44.8,29.95,NNW,343,0.0,0.0,70,0.00,,---,0.00,VWS V14.01,2013-06-30 14:45:00,
2013-06-30 08:50:00,55.1,46.6,29.95,NNW,343,0.0,0.0,73,0.00,,---,0.00,VWS V14.01,2013-06-30 14:50:00,
2013-06-30 08:55:00,55.8,46.5,29.95,NNW,343,0.0,0.0,71,0.00,,---,0.00,VWS V14.01,2013-06-30 14:55:00,
2013-06-30 09:00:00,56.5,46.5,29.94,NNW,343,0.0,0.0,69,0.00,,---,0.00,VWS V14.01,2013-06-30 15:00:00,
2013-06-30 09:05:00,57.5,48.2,29.94,NNW,343,0.0,0.0,71,0.00,,---,0.00,VWS V14.01,2013-06-30 15:05:00,
2013-06-30 09:11:00,58.5,47.2,29.93,NNW,343,0.0,0.0,66,0.00,,---,0.00,VWS V14.01,2013-06-30 15:11:00,
2013-06-30 09:15:00,59.5,48.5,29.93,NNW,343,1.0,1.0,67,0.00,,---,0.00,VWS V14.01,2013-06-30 15:15:00,
2013-06-30 09:20:00,60.3,48.5,29.93,NNW,343,2.0,3.0,65,0.00,,---,0.00,VWS V14.01,2013-06-30 15:20:00,
2013-06-30 09:25:00,59.8,47.2,29.93,NNW,343,0.0,0.0,63,0.00,,---,0.00,VWS V14.01,2013-06-30 15:25:00,
2013-06-30 09:31:00,60.2,47.6,29.93,NNW,343,0.0,0.0,63,0.00,,---,0.00,VWS V14.01,2013-06-30 15:31:00,
2013-06-30 09:36:00,60.7,46.8,29.92,NNW,343,0.0,2.0,60,0.00,,---,0.00,VWS V14.01,2013-06-30 15:36:00,
2013-06-30 09:41:00,61.4,49.1,29.92,NNW,343,0.0,1.0,64,0.00,,---,0.00,VWS V14.01,2013-06-30 15:41:00,
2013-06-30 09:46:00,62.2,48.2,29.92,NNW,343,0.0,3.0,60,0.00,,---,0.00,VWS V14.01,2013-06-30 15:46:00,
2013-06-30 09:51:00,62.2,47.7,29.92,NNW,343,2.0,3.0,59,0.00,,---,0.00,VWS V14.01,2013-06-30 15:51:00,
2013-06-30 09:56:00,62.9,47.9,29.91,NNW,346,2.0,4.0,58,0.00,,---,0.00,VWS V14.01,2013-06-30 15:56:00,
2013-06-30 10:01:00,63.6,47.2,29.91,NNW,346,2.0,5.0,55,0.00,,---,0.00,VWS V14.01,2013-06-30 16:01:00,
2013-06-30 10:06:00,63.5,47.5,29.91,NNW,348,1.0,3.0,56,0.00,,---,0.00,VWS V14.01,2013-06-30 16:06:00,
2013-06-30 10:11:00,64.3,48.3,29.91,North,350,3.0,5.0,56,0.00,,---,0.00,VWS V14.01,2013-06-30 16:11:00,
2013-06-30 10:16:00,64.7,49.6,29.90,SE,130,1.0,5.0,58,0.00,,---,0.00,VWS V14.01,2013-06-30 16:16:00,
2013-06-30 10:21:00,65.3,47.8,29.90,SSE,159,5.0,6.0,53,0.00,,---,0.00,VWS V14.01,2013-06-30 16:21:00,
2013-06-30 10:26:00,65.8,46.7,29.90,ESE,113,4.0,4.0,50,0.00,,---,0.00,VWS V14.01,2013-06-30 16:26:00,
2013-06-30 10:31:00,65.9,46.8,29.90,SE,132,1.0,3.0,50,0.00,,---,0.00,VWS V14.01,2013-06-30 16:31:00,
2013-06-30 10:36:00,67.0,48.8,29.89,SE,134,6.0,7.0,52,0.00,,---,0.00,VWS V14.01,2013-06-30 16:36:00,
2013-06-30 10:41:00,67.7,47.9,29.89,SE,136,8.0,8.0,49,0.00,,---,0.00,VWS V14.01,2013-06-30 16:41:00,
2013-06-30 10:46:00,68.3,49.0,29.89,South,178,6.0,7.0,50,0.00,,---,0.00,VWS V14.01,2013-06-30 16:46:00,
2013-06-30 10:51:00,68.8,48.3,29.89,South,189,2.0,5.0,48,0.00,,---,0.00,VWS V14.01,2013-06-30 16:51:00,
2013-06-30 10:56:00,69.6,47.9,29.88,SSW,193,5.0,7.0,46,0.00,,---,0.00,VWS V14.01,2013-06-30 16:56:00,
2013-06-30 11:01:00,70.6,44.5,29.88,SSW,211,5.0,5.0,39,0.00,,---,0.00,VWS V14.01,2013-06-30 17:01:00,
2013-06-30 11:06:00,72.1,46.5,29.88,WSW,252,4.0,8.0,40,0.00,,---,0.00,VWS V14.01,2013-06-30 17:06:00,
2013-06-30 11:11:00,73.4,44.1,29.88,WSW,252,11.0,11.0,35,0.00,,---,0.00,VWS V14.01,2013-06-30 17:11:00,
2013-06-30 11:16:00,73.7,43.6,29.87,West,263,7.0,7.0,34,0.00,,---,0.00,VWS V14.01,2013-06-30 17:16:00,
2013-06-30 11:21:00,74.0,43.9,29.87,West,275,15.0,15.0,34,0.00,,---,0.00,VWS V14.01,2013-06-30 17:21:00,
2013-06-30 11:26:00,74.8,42.2,29.87,West,276,9.0,9.0,31,0.00,,---,0.00,VWS V14.01,2013-06-30 17:26:00,
2013-06-30 11:31:00,75.1,40.7,29.87,WSW,254,11.0,12.0,29,0.00,,---,0.00,VWS V14.01,2013-06-30 17:31:00,
2013-06-30 11:36:00,75.0,40.6,29.87,WNW,290,5.0,7.0,29,0.00,,---,0.00,VWS V14.01,2013-06-30 17:36:00,
2013-06-30 11:41:00,74.8,40.5,29.87,West,265,3.0,4.0,29,0.00,,---,0.00,VWS V14.01,2013-06-30 17:41:00,
2013-06-30 11:46:00,73.9,40.5,29.87,West,268,7.0,8.0,30,0.00,,---,0.00,VWS V14.01,2013-06-30 17:46:00,
2013-06-30 11:51:00,73.6,42.0,29.87,West,269,3.0,5.0,32,0.00,,---,0.00,VWS V14.01,2013-06-30 17:51:00,
2013-06-30 11:56:00,74.0,39.8,29.87,West,269,12.0,12.0,29,0.00,,---,0.00,VWS V14.01,2013-06-30 17:56:00,
2013-06-30 12:01:00,74.4,41.0,29.87,West,262,7.0,8.0,30,0.00,,---,0.00,VWS V14.01,2013-06-30 18:01:00,
2013-06-30 12:06:00,74.1,39.0,29.86,West,269,12.0,12.0,28,0.00,,---,0.00,VWS V14.01,2013-06-30 18:06:00,
2013-06-30 12:11:00,73.1,40.7,29.86,West,269,12.0,12.0,31,0.00,,---,0.00,VWS V14.01,2013-06-30 18:11:00,
2013-06-30 12:16:00,74.2,41.7,29.86,West,259,13.0,13.0,31,0.00,,---,0.00,VWS V14.01,2013-06-30 18:16:00,
2013-06-30 12:21:00,74.4,38.3,29.86,WSW,257,9.0,9.0,27,0.00,,---,0.00,VWS V14.01,2013-06-30 18:21:00,
2013-06-30 12:26:00,74.1,41.6,29.86,West,263,11.0,13.0,31,0.00,,---,0.00,VWS V14.01,2013-06-30 18:26:00,
2013-06-30 12:31:00,73.8,39.6,29.86,WNW,283,12.0,13.0,29,0.00,,---,0.00,VWS V14.01,2013-06-30 18:31:00,
2013-06-30 12:36:00,73.2,40.8,29.86,WNW,302,4.0,6.0,31,0.00,,---,0.00,VWS V14.01,2013-06-30 18:36:00,
2013-06-30 12:41:00,73.2,41.6,29.86,West,279,5.0,7.0,32,0.00,,---,0.00,VWS V14.01,2013-06-30 18:41:00,
2013-06-30 12:46:00,73.0,38.0,29.87,WNW,292,7.0,9.0,28,0.00,,---,0.00,VWS V14.01,2013-06-30 18:46:00,
2013-06-30 12:51:00,72.7,40.3,29.87,WNW,296,9.0,10.0,31,0.00,,---,0.00,VWS V14.01,2013-06-30 18:51:00,
2013-06-30 12:56:00,71.7,40.3,29.87,North,10,15.0,16.0,32,0.00,,---,0.00,VWS V14.01,2013-06-30 18:56:00,
2013-06-30 13:01:00,70.8,43.3,29.87,WNW,302,4.0,10.0,37,0.00,,---,0.00,VWS V14.01,2013-06-30 19:01:00,
2013-06-30 13:06:00,71.6,37.7,29.87,NW,307,8.0,11.0,29,0.00,,---,0.00,VWS V14.01,2013-06-30 19:06:00,
2013-06-30 13:11:00,72.1,43.7,29.86,NW,315,9.0,9.0,36,0.00,,---,0.00,VWS V14.01,2013-06-30 19:11:00,
2013-06-30 13:16:00,73.8,42.1,29.86,WNW,288,8.0,9.0,32,0.00,,---,0.00,VWS V14.01,2013-06-30 19:16:00,
2013-06-30 13:21:00,75.3,40.9,29.86,WNW,295,7.0,15.0,29,0.00,,---,0.00,VWS V14.01,2013-06-30 19:21:00,
2013-06-30 13:26:00,75.6,41.1,29.85,West,268,13.0,18.0,29,0.00,,---,0.00,VWS V14.01,2013-06-30 19:26:00,
2013-06-30 13:31:00,76.3,40.8,29.85,West,280,12.0,14.0,28,0.00,,---,0.00,VWS V14.01,2013-06-30 19:31:00,
2013-06-30 13:36:00,77.6,40.0,29.85,NW,313,13.0,18.0,26,0.00,,---,0.00,VWS V14.01,2013-06-30 19:36:00,
2013-06-30 13:42:00,77.4,37.8,29.85,NNW,330,17.0,17.0,24,0.00,,---,0.00,VWS V14.01,2013-06-30 19:42:00,
2013-06-30 13:47:00,75.9,39.6,29.85,NNW,341,14.0,15.0,27,0.00,,---,0.00,VWS V14.01,2013-06-30 19:47:00,
2013-06-30 13:52:00,75.4,38.2,29.85,NW,323,11.0,16.0,26,0.00,,---,0.00,VWS V14.01,2013-06-30 19:52:00,
2013-06-30 13:57:00,75.3,40.0,29.85,NNW,341,18.0,18.0,28,0.00,,---,0.00,VWS V14.01,2013-06-30 19:57:00,
2013-06-30 14:02:00,74.1,36.1,29.85,NW,309,4.0,7.0,25,0.00,,---,0.00,VWS V14.01,2013-06-30 20:02:00,
2013-06-30 14:07:00,74.1,39.8,29.84,WNW,295,15.0,17.0,29,0.00,,---,0.00,VWS V14.01,2013-06-30 20:07:00,
2013-06-30 14:12:00,74.8,40.5,29.84,NW,314,11.0,12.0,29,0.00,,---,0.00,VWS V14.01,2013-06-30 20:12:00,
2013-06-30 14:17:00,74.8,36.7,29.85,NW,319,12.0,16.0,25,0.00,,---,0.00,VWS V14.01,2013-06-30 20:17:00,
2013-06-30 14:22:00,74.2,39.0,29.85,WNW,302,10.0,10.0,28,0.00,,---,0.00,VWS V14.01,2013-06-30 20:22:00,
2013-06-30 14:27:00,72.9,37.9,29.85,NW,306,18.0,21.0,28,0.00,,---,0.00,VWS V14.01,2013-06-30 20:27:00,
2013-06-30 14:32:00,71.4,40.0,29.86,WNW,291,24.0,25.0,32,0.00,,---,0.00,VWS V14.01,2013-06-30 20:32:00,
2013-06-30 14:37:00,68.5,38.3,29.87,WNW,296,21.0,28.0,33,0.00,,---,0.00,VWS V14.01,2013-06-30 20:37:00,
2013-06-30 14:42:00,67.4,38.8,29.87,WSW,251,20.0,20.0,35,0.00,,---,0.00,VWS V14.01,2013-06-30 20:42:00,
2013-06-30 14:47:00,67.0,38.5,29.87,WSW,254,15.0,16.0,35,0.00,,---,0.00,VWS V14.01,2013-06-30 20:47:00,
2013-06-30 14:52:00,66.9,38.4,29.87,West,267,12.0,15.0,35,0.00,,---,0.00,VWS V14.01,2013-06-30 20:52:00,
2013-06-30 14:57:00,67.2,37.9,29.87,WNW,294,8.0,9.0,34,0.00,,---,0.00,VWS V14.01,2013-06-30 20:57:00,
2013-06-30 15:02:00,67.4,40.2,29.87,NW,305,5.0,6.0,37,0.00,,---,0.00,VWS V14.01,2013-06-30 21:02:00,
2013-06-30 15:07:00,69.4,42.0,29.86,WNW,293,4.0,8.0,37,0.00,,---,0.00,VWS V14.01,2013-06-30 21:07:00,
2013-06-30 15:12:00,72.0,40.6,29.85,West,259,9.0,10.0,32,0.00,,---,0.00,VWS V14.01,2013-06-30 21:12:00,
2013-06-30 15:17:00,73.5,41.0,29.85,WNW,286,6.0,6.0,31,0.00,,---,0.00,VWS V14.01,2013-06-30 21:17:00,
2013-06-30 15:22:00,74.7,40.4,29.85,West,274,7.0,7.0,29,0.00,,---,0.00,VWS V14.01,2013-06-30 21:22:00,
2013-06-30 15:27:00,75.2,40.8,29.84,WSW,252,8.0,13.0,29,0.00,,---,0.00,VWS V14.01,2013-06-30 21:27:00,
2013-06-30 15:32:00,74.9,39.6,29.84,NW,306,3.0,4.0,28,0.00,,---,0.00,VWS V14.01,2013-06-30 21:32:00,
2013-06-30 15:37:00,74.7,39.5,29.84,West,269,5.0,8.0,28,0.00,,---,0.00,VWS V14.01,2013-06-30 21:37:00,
2013-06-30 15:42:00,74.4,40.1,29.84,WNW,298,7.0,7.0,29,0.00,,---,0.00,VWS V14.01,2013-06-30 21:42:00,
2013-06-30 15:47:00,73.3,40.9,29.84,NNW,343,14.0,14.0,31,0.00,,---,0.00,VWS V14.01,2013-06-30 21:47:00,
2013-06-30 15:52:00,71.9,40.5,29.84,NW,319,11.0,13.0,32,0.00,,---,0.00,VWS V14.01,2013-06-30 21:52:00,
2013-06-30 15:57:00,71.4,39.2,29.84,NNW,346,9.0,13.0,31,0.00,,---,0.00,VWS V14.01,2013-06-30 21:57:00,
2013-06-30 16:02:00,71.7,40.3,29.84,NW,323,13.0,17.0,32,0.00,,---,0.00,VWS V14.01,2013-06-30 22:02:00,
2013-06-30 16:07:00,72.0,40.6,29.84,NNW,327,6.0,6.0,32,0.00,,---,0.00,VWS V14.01,2013-06-30 22:07:00,
2013-06-30 16:12:00,71.8,41.2,29.84,North,5,14.0,14.0,33,0.00,,---,0.00,VWS V14.01,2013-06-30 22:12:00,
2013-06-30 16:17:00,71.0,42.0,29.84,NNW,343,16.0,16.0,35,0.00,,---,0.00,VWS V14.01,2013-06-30 22:17:00,
2013-06-30 16:22:00,71.0,40.5,29.84,North,350,9.0,13.0,33,0.00,,---,0.00,VWS V14.01,2013-06-30 22:22:00,
2013-06-30 16:27:00,71.5,40.1,29.85,NW,325,10.0,10.0,32,0.00,,---,0.00,VWS V14.01,2013-06-30 22:27:00,
2013-06-30 16:33:00,70.8,39.5,29.85,WNW,295,8.0,9.0,32,0.00,,---,0.00,VWS V14.01,2013-06-30 22:33:00,
2013-06-30 16:38:00,70.2,41.3,29.85,WNW,282,9.0,11.0,35,0.00,,---,0.00,VWS V14.01,2013-06-30 22:38:00,
2013-06-30 16:43:00,69.8,40.9,29.85,WNW,290,8.0,8.0,35,0.00,,---,0.00,VWS V14.01,2013-06-30 22:43:00,
2013-06-30 16:48:00,69.4,44.7,29.85,WNW,282,6.0,7.0,41,0.00,,---,0.00,VWS V14.01,2013-06-30 22:48:00,
2013-06-30 16:53:00,68.9,45.5,29.85,West,275,8.0,9.0,43,0.00,,---,0.00,VWS V14.01,2013-06-30 22:53:00,
2013-06-30 16:58:00,68.2,45.5,29.85,WNW,291,10.0,10.0,44,0.00,,---,0.00,VWS V14.01,2013-06-30 22:58:00,
2013-06-30 17:03:00,67.7,41.2,29.85,WSW,247,6.0,8.0,38,0.00,,---,0.00,VWS V14.01,2013-06-30 23:03:00,
2013-06-30 17:08:00,68.0,42.1,29.85,WSW,250,0.0,0.0,39,0.00,,---,0.00,VWS V14.01,2013-06-30 23:08:00,
2013-06-30 17:13:00,69.8,45.1,29.85,WSW,250,6.0,6.0,41,0.00,,---,0.00,VWS V14.01,2013-06-30 23:13:00,
2013-06-30 17:18:00,70.2,45.4,29.84,WSW,245,0.0,5.0,41,0.00,,---,0.00,VWS V14.01,2013-06-30 23:18:00,
2013-06-30 17:23:00,70.8,41.8,29.84,SSE,166,9.0,9.0,35,0.00,,---,0.00,VWS V14.01,2013-06-30 23:23:00,
2013-06-30 17:28:00,70.5,45.0,29.84,SE,142,7.0,9.0,40,0.00,,---,0.00,VWS V14.01,2013-06-30 23:28:00,
2013-06-30 17:33:00,70.6,44.5,29.84,SSE,152,8.0,9.0,39,0.00,,---,0.00,VWS V14.01,2013-06-30 23:33:00,
2013-06-30 17:38:00,70.4,44.3,29.84,SSE,152,2.0,3.0,39,0.00,,---,0.00,VWS V14.01,2013-06-30 23:38:00,
2013-06-30 17:43:00,70.1,43.3,29.84,SSE,152,5.0,5.0,38,0.00,,---,0.00,VWS V14.01,2013-06-30 23:43:00,
2013-06-30 17:48:00,69.7,42.3,29.84,West,265,5.0,11.0,37,0.00,,---,0.00,VWS V14.01,2013-06-30 23:48:00,
2013-06-30 17:53:00,69.2,36.5,29.83,NW,318,12.0,12.0,30,0.00,,---,0.00,VWS V14.01,2013-06-30 23:53:00,
2013-06-30 17:58:00,69.1,38.0,29.83,WNW,286,8.0,8.0,32,0.00,,---,0.00,VWS V14.01,2013-06-30 23:58:00,
2013-06-30 18:03:00,68.8,46.0,29.84,West,275,7.0,7.0,44,0.00,,---,0.00,VWS V14.01,2013-07-01 00:03:00,
2013-06-30 18:08:00,69.4,44.7,29.84,West,273,7.0,7.0,41,0.00,,---,0.00,VWS V14.01,2013-07-01 00:08:00,
2013-06-30 18:13:00,70.4,41.5,29.84,West,272,2.0,4.0,35,0.00,,---,0.00,VWS V14.01,2013-07-01 00:13:00,
2013-06-30 18:18:00,71.4,43.8,29.84,WNW,284,6.0,7.0,37,0.00,,---,0.00,VWS V14.01,2013-07-01 00:18:00,
2013-06-30 18:23:00,72.2,42.3,29.83,West,279,3.0,3.0,34,0.00,,---,0.00,VWS V14.01,2013-07-01 00:23:00,
2013-06-30 18:28:00,72.5,41.0,29.84,West,278,5.0,5.0,32,0.00,,---,0.00,VWS V14.01,2013-07-01 00:28:00,
2013-06-30 18:33:00,72.4,41.7,29.83,WSW,243,6.0,9.0,33,0.00,,---,0.00,VWS V14.01,2013-07-01 00:33:00,
2013-06-30 18:38:00,72.0,42.9,29.84,WSW,243,4.0,4.0,35,0.00,,---,0.00,VWS V14.01,2013-07-01 00:38:00,
2013-06-30 18:43:00,71.7,40.3,29.84,WSW,244,0.0,0.0,32,0.00,,---,0.00,VWS V14.01,2013-07-01 00:43:00,
2013-06-30 18:48:00,71.7,43.3,29.84,WSW,244,6.0,6.0,36,0.00,,---,0.00,VWS V14.01,2013-07-01 00:48:00,
2013-06-30 18:53:00,71.4,43.8,29.84,WSW,245,4.0,4.0,37,0.00,,---,0.00,VWS V14.01,2013-07-01 00:53:00,
2013-06-30 18:58:00,70.7,40.2,29.84,WNW,290,5.0,5.0,33,0.00,,---,0.00,VWS V14.01,2013-07-01 00:58:00,
2013-06-30 19:03:00,69.9,42.5,29.84,NW,306,7.0,7.0,37,0.00,,---,0.00,VWS V14.01,2013-07-01 01:03:00,
2013-06-30 19:08:00,69.3,41.9,29.84,NW,315,3.0,7.0,37,0.00,,---,0.00,VWS V14.01,2013-07-01 01:08:00,
2013-06-30 19:13:00,68.8,42.2,29.84,NW,315,1.0,3.0,38,0.00,,---,0.00,VWS V14.01,2013-07-01 01:13:00,
2013-06-30 19:18:00,68.4,39.0,29.84,WNW,300,8.0,10.0,34,0.00,,---,0.00,VWS V14.01,2013-07-01 01:18:00,
2013-06-30 19:23:00,68.6,35.1,29.84,NW,306,7.0,8.0,29,0.00,,---,0.00,VWS V14.01,2013-07-01 01:23:00,
2013-06-30 19:28:00,68.8,36.1,29.85,NW,305,7.0,7.0,30,0.00,,---,0.00,VWS V14.01,2013-07-01 01:28:00,
2013-06-30 19:33:00,68.7,37.7,29.85,WNW,294,7.0,7.0,32,0.00,,---,0.00,VWS V14.01,2013-07-01 01:33:00,
2013-06-30 19:38:00,68.4,41.1,29.86,West,266,7.0,7.0,37,0.00,,---,0.00,VWS V14.01,2013-07-01 01:38:00,
2013-06-30 19:43:00,68.1,40.2,29.86,SSW,196,8.0,8.0,36,0.00,,---,0.00,VWS V14.01,2013-07-01 01:43:00,
2013-06-30 19:48:00,67.6,41.1,29.86,SSW,192,6.0,8.0,38,0.00,,---,0.00,VWS V14.01,2013-07-01 01:48:00,
2013-06-30 19:53:00,67.2,41.4,29.86,South,191,4.0,7.0,39,0.00,,---,0.00,VWS V14.01,2013-07-01 01:53:00,
2013-06-30 19:58:00,66.6,40.9,29.86,South,177,9.0,9.0,39,0.00,,---,0.00,VWS V14.01,2013-07-01 01:58:00,
2013-06-30 20:03:00,65.7,40.7,29.86,South,178,6.0,7.0,40,0.00,,---,0.00,VWS V14.01,2013-07-01 02:03:00,
2013-06-30 20:08:00,64.9,41.9,29.86,South,169,4.0,5.0,43,0.00,,---,0.00,VWS V14.01,2013-07-01 02:08:00,
2013-06-30 20:14:00,64.1,42.3,29.87,South,169,4.0,4.0,45,0.00,,---,0.00,VWS V14.01,2013-07-01 02:14:00,
2013-06-30 20:19:00,62.5,42.0,29.88,South,169,5.0,6.0,47,0.00,,---,0.00,VWS V14.01,2013-07-01 02:19:00,
2013-06-30 20:24:00,61.6,42.8,29.88,South,169,2.0,4.0,50,0.00,,---,0.00,VWS V14.01,2013-07-01 02:24:00,
2013-06-30 20:29:00,61.0,43.8,29.88,SW,215,5.0,5.0,53,0.00,,---,0.00,VWS V14.01,2013-07-01 02:29:00,
2013-06-30 20:34:00,60.8,44.1,29.89,SW,215,2.0,2.0,54,0.00,,---,0.00,VWS V14.01,2013-07-01 02:34:00,
2013-06-30 20:39:00,60.5,43.8,29.89,SW,215,3.0,5.0,54,0.00,,---,0.00,VWS V14.01,2013-07-01 02:39:00,
2013-06-30 20:44:00,60.3,44.1,29.90,SW,215,0.0,0.0,55,0.00,,---,0.00,VWS V14.01,2013-07-01 02:44:00,
2013-06-30 20:49:00,59.9,45.1,29.90,SW,215,6.0,6.0,58,0.00,,---,0.00,VWS V14.01,2013-07-01 02:49:00,
2013-06-30 20:54:00,58.9,44.2,29.90,SW,215,2.0,4.0,58,0.00,,---,0.00,VWS V14.01,2013-07-01 02:54:00,
2013-06-30 20:59:00,58.3,44.0,29.90,SW,216,3.0,3.0,59,0.00,,---,0.00,VWS V14.01,2013-07-01 02:59:00,
2013-06-30 21:04:00,57.9,43.7,29.91,SW,216,1.0,2.0,59,0.00,,---,0.00,VWS V14.01,2013-07-01 03:04:00,
2013-06-30 21:09:00,57.9,43.7,29.91,SW,216,0.0,1.0,59,0.00,,---,0.00,VWS V14.01,2013-07-01 03:09:00,
2013-06-30 21:14:00,57.9,44.5,29.91,SW,216,5.0,5.0,61,0.00,,---,0.00,VWS V14.01,2013-07-01 03:14:00,
2013-06-30 21:19:00,57.7,44.4,29.91,SW,216,0.0,0.0,61,0.00,,---,0.00,VWS V14.01,2013-07-01 03:19:00,
2013-06-30 21:24:00,57.6,44.7,29.91,SW,216,3.0,3.0,62,0.00,,---,0.00,VWS V14.01,2013-07-01 03:24:00,
2013-06-30 21:29:00,57.5,44.2,29.91,SW,227,6.0,8.0,61,0.00,,---,0.00,VWS V14.01,2013-07-01 03:29:00,
2013-06-30 21:34:00,56.0,43.6,29.91,NNW,346,10.0,10.0,63,0.00,,---,0.00,VWS V14.01,2013-07-01 03:34:00,
2013-06-30 21:39:00,54.8,43.7,29.91,NNW,344,7.0,7.0,66,0.00,,---,0.00,VWS V14.01,2013-07-01 03:39:00,
2013-06-30 21:44:00,54.2,43.5,29.92,NNW,344,6.0,7.0,67,0.00,,---,0.00,VWS V14.01,2013-07-01 03:44:00,
2013-06-30 21:49:00,54.0,43.7,29.92,NNW,344,7.0,8.0,68,0.00,,---,0.00,VWS V14.01,2013-07-01 03:49:00,
2013-06-30 21:54:00,53.9,43.6,29.92,NNW,344,5.0,7.0,68,0.00,,---,0.00,VWS V14.01,2013-07-01 03:54:00,
2013-06-30 21:59:00,53.5,43.6,29.92,NNW,344,6.0,7.0,69,0.00,,---,0.00,VWS V14.01,2013-07-01 03:59:00,
2013-06-30 22:01:00,53.3,43.0,29.93,North,355,8.0,11.0,68,0.00,,---,0.00,VWS V14.01,2013-07-01 04:01:00,
2013-06-30 22:02:00,53.1,43.2,29.93,North,355,8.0,9.0,69,0.00,,---,0.00,VWS V14.01,2013-07-01 04:02:00,
2013-06-30 22:07:00,52.4,42.9,29.93,NNW,342,8.0,9.0,70,0.00,,---,0.00,VWS V14.01,2013-07-01 04:07:00,
2013-06-30 22:12:00,52.0,42.9,29.94,NNW,342,6.0,7.0,71,0.00,,---,0.00,VWS V14.01,2013-07-01 04:12:00,
2013-06-30 22:17:00,51.7,43.0,29.95,NNW,343,5.0,5.0,72,0.00,,---,0.00,VWS V14.01,2013-07-01 04:17:00,
2013-06-30 22:22:00,51.8,43.1,29.95,NNW,343,4.0,4.0,72,0.00,,---,0.00,VWS V14.01,2013-07-01 04:22:00,
2013-06-30 22:27:00,51.9,43.2,29.95,NNW,344,0.0,2.0,72,0.00,,---,0.00,VWS V14.01,2013-07-01 04:27:00,
2013-06-30 22:32:00,51.9,43.2,29.96,NNW,344,0.0,0.0,72,0.00,,---,0.00,VWS V14.01,2013-07-01 04:32:00,
2013-06-30 22:37:00,51.6,42.9,29.96,NNW,344,3.0,5.0,72,0.00,,---,0.00,VWS V14.01,2013-07-01 04:37:00,
2013-06-30 22:42:00,51.2,42.1,29.96,NNW,344,0.0,0.0,71,0.00,,---,0.00,VWS V14.01,2013-07-01 04:42:00,
2013-06-30 22:47:00,51.0,41.6,29.96,NNW,344,2.0,2.0,70,0.00,,---,0.00,VWS V14.01,2013-07-01 04:47:00,
2013-06-30 22:52:00,50.6,41.9,29.97,NNW,344,5.0,7.0,72,0.00,,---,0.00,VWS V14.01,2013-07-01 04:52:00,
2013-06-30 22:57:00,49.8,41.2,29.97,NNW,344,5.0,6.0,72,0.00,,---,0.00,VWS V14.01,2013-07-01 04:57:00,
2013-06-30 23:02:00,49.1,41.5,29.97,NNW,344,9.0,11.0,75,0.00,,---,0.00,VWS V14.01,2013-07-01 05:02:00,
2013-06-30 23:07:00,48.8,41.6,29.97,NNW,340,9.0,11.0,76,0.00,,---,0.00,VWS V14.01,2013-07-01 05:07:00,
2013-06-30 23:12:00,49.4,42.2,29.97,NNW,336,12.0,12.0,76,0.00,,---,0.00,VWS V14.01,2013-07-01 05:12:00,
2013-06-30 23:17:00,49.7,41.8,29.97,NNW,335,4.0,5.0,74,0.00,,---,0.00,VWS V14.01,2013-07-01 05:17:00,
2013-06-30 23:22:00,49.8,41.9,29.98,NNW,335,3.0,4.0,74,0.00,,---,0.00,VWS V14.01,2013-07-01 05:22:00,
2013-06-30 23:27:00,50.0,41.3,29.98,NNW,332,8.0,9.0,72,0.00,,---,0.00,VWS V14.01,2013-07-01 05:27:00,
2013-06-30 23:32:00,49.5,41.6,29.98,NNW,331,5.0,6.0,74,0.00,,---,0.00,VWS V14.01,2013-07-01 05:32:00,
2013-06-30 23:37:00,48.8,41.2,29.98,NNW,330,7.0,11.0,75,0.00,,---,0.00,VWS V14.01,2013-07-01 05:37:00,
2013-06-30 23:42:00,48.3,41.1,29.98,NNW,331,5.0,7.0,76,0.00,,---,0.00,VWS V14.01,2013-07-01 05:42:00,
2013-06-30 23:47:00,48.4,41.2,29.99,NNW,333,7.0,10.0,76,0.00,,---,0.00,VWS V14.01,2013-07-01 05:47:00,
2013-06-30 23:52:00,48.0,40.8,29.99,NNW,335,5.0,8.0,76,0.00,,---,0.00,VWS V14.01,2013-07-01 05:52:00,
2013-06-30 23:57:00,47.8,41.0,29.99,NNW,335,9.0,9.0,77,0.00,,---,0.00,VWS V14.01,2013-07-01 05:57:00,